Waldorf, MD (20601)

8:36 AM EDT en Octubre 25, 2014 (GMT -0400)
Sentry Woods | Change Station
CLOSE
Current Station
Estación meteorológica personal
Location: Waldorf, MD
Altura: 210 ft
Estaciones meteorológicas cercanas

Alt 210 ft 38.61 °N, 76.88 °W | Updated 6 minutes ago

Despejado
Despejado
41.7 ° F
Sensación térmica 42 ° F
N
0.0
Viento Variable Viento desde Oeste

Hoy
Alta -- | Baja -- ° F
--% Posibilidad de precipitaciones
Ayer
Alta -- | Baja -- ° F
Precip. -- pul
7:26 AM 6:15 PM
Creciente, 3% visible
Presión 29.97 pul
Visibilidad 10.0 Millas
Nubes Despejado
Vientos helados 42 ° F
Punto de rocío 41 ° F
Humedad 98%
Precipitaciones 0.00 pul
Espesor de la nieve No disponible.
UV 0 de una escala de 12
Polen 1.90 de una escala de 12
Calidad del aire No disponible.
Flu Activity Sporadic
METAR KADW 251158Z AUTO 00000KT 10SM CLR 07/04 A2995 RMK AO2 SLP149 T00650043 10122 20052 52003 $

More Conditions Fewer Conditions

Presión 29.97 pul
Visibilidad 10.0 Millas
Nubes Despejado
Vientos helados 42 ° F
Punto de rocío 41 ° F
Humedad 98%
Precipitaciones 0.00 pul
Espesor de la nieve No disponible.
UV 0 de una escala de 12
Polen 1.90 de una escala de 12
Calidad del aire No disponible.
Flu Activity Sporadic
METAR KADW 251158Z AUTO 00000KT 10SM CLR 07/04 A2995 RMK AO2 SLP149 T00650043 10122 20052 52003 $

More Conditions Fewer Conditions

10-Day Weather Forecast

Almanac

Astronomía

Oct. 25, 2014 Salida Puesta
Hora real 7:26 AM EDT 6:15 PM EDT
Crepúsculo civil 6:59 AM EDT 6:42 PM EDT
Crepúsculo náutico 6:28 AM EDT 7:13 PM EDT
Crepúsculo astronómico 5:57 AM EDT 7:44 PM EDT
Luna 9:02 AM EDT 7:38 PM EDT
Horas de luz 11h 43m
Horas de luz
10h 48m
Tomorrow will be 2m 17s shorter.
Creciente, 3% of the Moon is Illuminated
Hoy
Creciente
Oct 30
Cuarto creciente
Nov 6
Luna llena
Nov 14
Cuarto menguante
Nov 22
Nueva

Extremos de hoy

Máximos del estado Bajos del estado

Community

WunderPhotos

Upload Photos

1,764,821 ¡fotos cargadas!

Nearby

Grosos de nieve

Estación Profundido Altura
No tenemos constancia de nieve nueva.

Actividad de terremotos

Ciudad Distance Mag. Tiempo y dato
No hay informes recientes de la actividad sísmica.
Magnitud mínima muestra es 2,5.

Temperaturas de aguas costeras

Lugar Temperatura
Washington, DC 60.1 ° F
Baltimore, MD 64.0 ° F
Solomons Island, MD 63.0 ° F

Estaciones meteorológicas cercanas